createdAt,value
2022-11-03T00:01:42.828Z,3.13
2022-11-03T00:04:15.343Z,2.83
2022-11-03T00:06:46.743Z,2.30
2022-11-03T00:09:18.313Z,3.33
2022-11-03T00:11:50.973Z,2.55
2022-11-03T00:14:20.971Z,1.85
2022-11-03T00:16:50.459Z,3.00
2022-11-03T00:19:20.037Z,2.62
2022-11-03T00:21:50.155Z,2.47
2022-11-03T00:24:19.586Z,1.72
2022-11-03T00:26:49.085Z,2.50
2022-11-03T00:29:18.596Z,2.25
2022-11-03T00:31:48.018Z,3.12
2022-11-03T00:34:17.501Z,3.90
2022-11-03T00:36:46.931Z,2.67
2022-11-03T00:39:16.436Z,2.98
2022-11-03T00:41:45.958Z,3.00
2022-11-03T00:44:15.409Z,2.85
2022-11-03T00:46:44.825Z,3.87
2022-11-03T00:49:14.355Z,2.43
2022-11-03T00:51:43.782Z,4.65
2022-11-03T00:54:13.209Z,3.93
2022-11-03T00:56:44.785Z,3.75
2022-11-03T00:59:14.283Z,2.75
2022-11-03T01:01:47.772Z,4.78
2022-11-03T01:04:36.849Z,3.12
2022-11-03T01:07:07.777Z,5.00
2022-11-03T01:09:40.227Z,5.40
2022-11-03T01:12:13.216Z,3.47
2022-11-03T01:14:49.211Z,4.87
2022-11-03T01:17:21.781Z,5.08
2022-11-03T01:19:51.352Z,5.30
2022-11-03T01:22:22.268Z,4.35
2022-11-03T01:24:55.060Z,3.73
2022-11-03T01:27:24.576Z,4.50
2022-11-03T01:29:54.140Z,5.03
2022-11-03T01:32:23.876Z,4.80
2022-11-03T01:34:53.288Z,5.28
2022-11-03T01:37:22.727Z,4.67
2022-11-03T01:39:52.185Z,4.50
2022-11-03T01:42:21.626Z,4.87
2022-11-03T01:44:51.050Z,4.45
2022-11-03T01:47:26.355Z,4.47
2022-11-03T01:50:01.691Z,4.42
2022-11-03T01:52:43.850Z,4.83
2022-11-03T01:55:19.149Z,5.12
2022-11-03T01:58:00.694Z,4.67
2022-11-03T02:00:30.303Z,5.40
2022-11-03T02:03:01.472Z,5.80
2022-11-03T02:05:31.834Z,5.47
2022-11-03T02:10:38.342Z,4.20
2022-11-03T02:13:13.868Z,5.30
2022-11-03T02:15:44.131Z,6.00
2022-11-03T02:18:14.647Z,4.00
2022-11-03T02:20:46.696Z,5.57
2022-11-03T02:23:38.216Z,6.90
2022-11-03T02:26:09.369Z,7.90
2022-11-03T02:28:39.168Z,6.03
2022-11-03T02:31:14.632Z,6.08
2022-11-03T02:33:56.065Z,7.63
2022-11-03T02:36:37.495Z,5.73
2022-11-03T02:39:19.143Z,6.53
2022-11-03T02:41:49.997Z,7.13
2022-11-03T02:44:21.813Z,6.12
2022-11-03T02:46:54.297Z,8.93
2022-11-03T02:49:23.926Z,8.40
2022-11-03T02:52:04.177Z,9.43
2022-11-03T02:54:36.731Z,6.40
2022-11-03T02:57:09.253Z,6.92
2022-11-03T02:59:50.754Z,6.97
2022-11-03T03:02:23.316Z,7.53
2022-11-03T03:04:56.402Z,4.83
2022-11-03T03:07:34.702Z,5.90
2022-11-03T03:10:07.818Z,5.05
2022-11-03T03:12:40.335Z,6.12
2022-11-03T03:15:10.833Z,8.17
2022-11-03T03:17:52.459Z,6.90
2022-11-03T03:20:25.450Z,6.70
2022-11-03T03:22:58.088Z,7.70
2022-11-03T03:25:46.692Z,6.53
2022-11-03T03:28:22.137Z,6.67
2022-11-03T03:30:54.035Z,7.62
2022-11-03T03:33:25.996Z,5.17
2022-11-03T03:35:56.774Z,6.37
2022-11-03T03:38:29.290Z,5.60
2022-11-03T03:41:05.511Z,6.80
2022-11-03T03:43:35.048Z,8.80
2022-11-03T03:46:08.130Z,8.23
2022-11-03T03:48:38.399Z,7.83
2022-11-03T03:51:09.388Z,8.00
2022-11-03T03:53:38.812Z,7.40
2022-11-03T03:56:08.669Z,7.50
2022-11-03T03:58:38.128Z,5.13
2022-11-03T04:01:07.571Z,7.95
2022-11-03T04:03:37.074Z,8.57
2022-11-03T04:06:06.579Z,8.37
2022-11-03T04:08:36.019Z,7.13
2022-11-03T04:11:23.593Z,7.30
2022-11-03T04:14:10.977Z,6.97
2022-11-03T04:16:58.649Z,9.07
2022-11-03T04:19:46.211Z,9.07
2022-11-03T04:22:18.500Z,6.15
2022-11-03T04:24:50.656Z,5.95
2022-11-03T04:27:23.424Z,8.38
2022-11-03T04:29:54.110Z,7.50
2022-11-03T04:32:23.637Z,7.97
2022-11-03T04:34:54.163Z,8.80
2022-11-03T04:37:23.589Z,4.62
2022-11-03T04:39:53.378Z,6.08
2022-11-03T04:42:24.133Z,6.30
2022-11-03T04:44:53.640Z,7.25
2022-11-03T04:47:23.127Z,6.60
2022-11-03T04:49:52.625Z,8.68
2022-11-03T04:52:23.385Z,4.87
2022-11-03T04:54:54.828Z,6.10
2022-11-03T04:57:24.330Z,7.67
2022-11-03T04:59:53.759Z,8.80
2022-11-03T05:02:23.425Z,5.43
2022-11-03T05:04:52.872Z,7.42
2022-11-03T05:07:28.281Z,6.83
2022-11-03T05:09:58.386Z,7.62
2022-11-03T05:12:28.324Z,6.55
2022-11-03T05:14:59.065Z,7.70
2022-11-03T05:17:30.172Z,7.62
2022-11-03T05:20:03.758Z,7.33
2022-11-03T05:22:36.444Z,7.53
2022-11-03T05:25:14.833Z,8.43
2022-11-03T05:27:44.248Z,6.97
2022-11-03T05:30:15.693Z,8.18
2022-11-03T05:32:45.129Z,6.57
2022-11-03T05:35:20.250Z,7.23
2022-11-03T05:37:51.859Z,7.57
2022-11-03T05:40:26.941Z,6.57
2022-11-03T05:42:59.506Z,7.37
2022-11-03T05:45:34.297Z,12.43
2022-11-03T05:48:06.990Z,10.17
2022-11-03T05:50:37.199Z,7.17
2022-11-03T05:53:27.809Z,12.93
2022-11-03T05:56:00.624Z,8.75
2022-11-03T05:58:42.006Z,10.68
2022-11-03T06:01:35.667Z,9.68
2022-11-03T06:04:17.061Z,8.08
2022-11-03T06:06:54.924Z,9.75
2022-11-03T06:09:26.741Z,8.03
2022-11-03T06:11:59.241Z,8.80
2022-11-03T06:14:32.552Z,7.75
2022-11-03T06:17:07.024Z,8.50
2022-11-03T06:19:42.177Z,9.73
2022-11-03T06:22:32.838Z,8.35
2022-11-03T06:25:28.218Z,10.77
2022-11-03T06:28:03.457Z,8.05
2022-11-03T06:30:35.635Z,9.98
2022-11-03T06:33:26.547Z,9.93
2022-11-03T06:35:59.447Z,7.90
2022-11-03T06:38:34.777Z,10.00
2022-11-03T06:41:04.335Z,8.20
2022-11-03T06:43:42.734Z,8.93
2022-11-03T06:46:27.023Z,10.38
2022-11-03T06:49:03.755Z,10.87
2022-11-03T06:51:36.589Z,11.45
2022-11-03T06:54:09.033Z,10.83
2022-11-03T06:56:39.857Z,9.98
2022-11-03T06:59:12.581Z,8.23
2022-11-03T07:01:42.242Z,9.43
2022-11-03T07:04:17.983Z,11.18
2022-11-03T07:06:52.921Z,12.13
2022-11-03T07:09:28.287Z,10.30
2022-11-03T07:12:00.692Z,6.35
2022-11-03T07:14:32.383Z,10.50
2022-11-03T07:17:09.891Z,10.15
2022-11-03T07:19:42.809Z,7.30
2022-11-03T07:22:20.974Z,8.93
2022-11-03T07:24:53.504Z,7.07
2022-11-03T07:27:32.493Z,10.97
2022-11-03T07:30:05.125Z,10.20
2022-11-03T07:32:36.036Z,8.63
2022-11-03T07:35:20.867Z,9.98
2022-11-03T07:37:52.670Z,9.78
2022-11-03T07:40:28.875Z,9.23
2022-11-03T07:43:00.280Z,8.80
2022-11-03T07:45:45.523Z,8.20
2022-11-03T07:48:23.883Z,8.90
2022-11-03T07:50:56.159Z,6.08
2022-11-03T07:53:34.715Z,9.13
2022-11-03T07:56:07.273Z,8.47
2022-11-03T07:58:39.873Z,8.73
2022-11-03T08:01:24.541Z,14.40
2022-11-03T08:03:57.130Z,12.60
2022-11-03T08:06:26.643Z,12.47
2022-11-03T08:08:56.583Z,9.85
2022-11-03T08:11:29.290Z,9.58
2022-11-03T08:13:58.326Z,10.28
2022-11-03T08:16:27.902Z,8.95
2022-11-03T08:18:57.325Z,11.13
2022-11-03T08:21:26.775Z,12.33
2022-11-03T08:23:56.264Z,10.53
2022-11-03T08:26:25.931Z,9.73
2022-11-03T08:28:55.994Z,10.03
2022-11-03T08:31:25.436Z,9.90
2022-11-03T08:33:55.009Z,14.47
2022-11-03T08:36:24.491Z,10.77
2022-11-03T08:38:53.974Z,9.90
2022-11-03T08:41:23.409Z,10.13
2022-11-03T08:43:52.905Z,9.35
2022-11-03T08:46:22.411Z,10.30
2022-11-03T08:48:52.205Z,8.15
2022-11-03T08:51:21.843Z,12.93
2022-11-03T08:53:53.042Z,14.70
2022-11-03T08:56:23.225Z,17.05
2022-11-03T08:58:52.823Z,16.37
2022-11-03T09:01:22.372Z,12.30
2022-11-03T09:03:52.026Z,9.53
2022-11-03T09:06:21.553Z,12.10
2022-11-03T09:11:22.172Z,9.35
2022-11-03T09:13:51.589Z,10.32
2022-11-03T09:16:21.187Z,8.78
2022-11-03T09:18:51.042Z,10.17
2022-11-03T09:21:20.478Z,10.40
2022-11-03T09:23:50.460Z,11.90
2022-11-03T09:26:20.614Z,9.30
2022-11-03T09:28:50.122Z,9.80
2022-11-03T09:31:20.402Z,13.70
2022-11-03T09:33:49.824Z,9.95
2022-11-03T09:36:19.372Z,11.03
2022-11-03T09:38:48.861Z,9.48
2022-11-03T09:41:26.611Z,11.20
2022-11-03T09:43:50.833Z,11.87
2022-11-03T09:46:21.124Z,13.63
2022-11-03T09:48:50.609Z,12.00
2022-11-03T09:51:22.483Z,11.70
2022-11-03T09:53:51.930Z,11.97
2022-11-03T09:56:24.265Z,12.10
2022-11-03T09:58:54.690Z,11.53
2022-11-03T10:01:25.635Z,10.35
2022-11-03T10:03:58.498Z,10.77
2022-11-03T10:06:27.929Z,11.10
2022-11-03T10:08:57.738Z,14.57
2022-11-03T10:11:27.405Z,11.57
2022-11-03T10:13:58.865Z,12.15
2022-11-03T10:16:29.414Z,11.75
2022-11-03T10:19:00.782Z,16.57
2022-11-03T10:21:34.348Z,11.97
2022-11-03T10:24:03.869Z,14.63
2022-11-03T10:26:48.300Z,11.48
2022-11-03T10:29:23.836Z,9.83
2022-11-03T10:31:56.189Z,10.50
2022-11-03T10:34:42.056Z,15.18
2022-11-03T10:37:21.227Z,10.17
2022-11-03T10:39:55.857Z,11.03
2022-11-03T10:42:33.766Z,9.33
2022-11-03T10:45:21.891Z,10.43
2022-11-03T10:48:02.824Z,9.23
2022-11-03T10:50:32.491Z,11.20
2022-11-03T10:53:03.802Z,10.63
2022-11-03T10:55:33.894Z,11.65
2022-11-03T10:58:03.415Z,12.13
2022-11-03T11:00:33.422Z,13.80
2022-11-03T11:03:03.054Z,9.53
2022-11-03T11:05:33.074Z,11.38
2022-11-03T11:08:03.146Z,13.18
2022-11-03T11:10:33.303Z,14.63
2022-11-03T11:13:22.559Z,9.87
2022-11-03T11:15:54.900Z,12.70
2022-11-03T11:18:33.251Z,14.23
2022-11-03T11:21:04.992Z,15.55
2022-11-03T11:23:41.873Z,11.63
2022-11-03T11:26:17.174Z,12.15
2022-11-03T11:28:49.737Z,15.85
2022-11-03T11:31:31.075Z,15.63
2022-11-03T11:34:20.010Z,10.77
2022-11-03T11:36:58.421Z,8.13
2022-11-03T11:39:31.526Z,15.58
2022-11-03T11:42:19.591Z,10.27
2022-11-03T11:44:57.151Z,9.73
2022-11-03T11:47:29.983Z,10.90
2022-11-03T11:50:10.858Z,10.73
2022-11-03T11:52:52.382Z,10.48
2022-11-03T11:55:33.603Z,8.65
2022-11-03T11:58:05.688Z,9.93
2022-11-03T12:00:36.608Z,12.47
2022-11-03T12:03:07.999Z,8.63
2022-11-03T12:05:38.252Z,11.30
2022-11-03T12:08:21.894Z,9.65
2022-11-03T12:10:57.445Z,9.15
2022-11-03T12:13:45.106Z,8.23
2022-11-03T12:16:31.116Z,6.72
2022-11-03T12:19:03.613Z,10.65
2022-11-03T12:21:51.980Z,12.55
2022-11-03T12:24:30.422Z,7.40
2022-11-03T12:27:05.119Z,12.33
2022-11-03T12:29:34.624Z,10.93
2022-11-03T12:32:04.523Z,17.00
2022-11-03T12:34:33.970Z,9.45
2022-11-03T12:37:03.406Z,14.60
2022-11-03T12:39:32.854Z,8.28
2022-11-03T12:42:02.519Z,10.03
2022-11-03T12:44:32.402Z,11.97
2022-11-03T12:47:01.961Z,10.82
2022-11-03T12:49:32.290Z,11.97
2022-11-03T12:52:07.759Z,10.83
2022-11-03T12:54:35.538Z,8.10
2022-11-03T12:57:05.239Z,9.13
2022-11-03T12:59:34.805Z,11.38
2022-11-03T13:04:33.519Z,9.58
2022-11-03T13:07:03.145Z,11.33
2022-11-03T13:09:33.150Z,11.38
2022-11-03T13:12:20.914Z,10.93
2022-11-03T13:14:50.455Z,10.45
2022-11-03T13:17:19.872Z,7.78
2022-11-03T13:19:54.316Z,19.15
2022-11-03T13:22:21.089Z,16.23
2022-11-03T22:57:24.628Z,10.55
2022-11-03T22:59:54.057Z,11.55
2022-11-03T23:02:23.558Z,16.80
2022-11-03T23:04:53.047Z,16.87
